Time;durP1;ratioP1;P1;durP2;ratioP2;P2;SDS_P1;SDS_P2;PMS_P1;PMS_P2;Temp;Humidity;BMP_temperature;BMP_pressure;BME280_temperature;BME280_humidity;BME280_pressure;Samples;Min_cycle;Max_cycle;Signal;HPM_P1;HPM_P2
2021/06/22 00:02:13;;;;;;;2.30;1.60;;;13.20;92.70;;;;;;5074462;28;20036;-76
2021/06/22 00:04:38;;;;;;;3.08;1.30;;;13.10;92.70;;;;;;5056496;28;20028;-77
2021/06/22 00:07:04;;;;;;;1.50;1.40;;;13.20;92.80;;;;;;5056343;28;20120;-76
2021/06/22 00:09:29;;;;;;;3.25;1.50;;;13.10;92.70;;;;;;5074312;28;20020;-77
2021/06/22 00:11:55;;;;;;;2.05;1.45;;;13.10;92.80;;;;;;5056433;28;20467;-76
2021/06/22 00:14:20;;;;;;;1.60;1.40;;;13.10;92.80;;;;;;5055665;28;20021;-75
2021/06/22 00:16:46;;;;;;;2.58;1.50;;;13.10;92.80;;;;;;5056181;28;20037;-75
2021/06/22 00:19:13;;;;;;;2.53;1.60;;;13.10;92.80;;;;;;5056074;28;20074;-75
2021/06/22 00:21:39;;;;;;;1.33;1.23;;;13.10;92.80;;;;;;5074025;28;20107;-75
2021/06/22 00:24:05;;;;;;;1.00;1.00;;;13.00;92.80;;;;;;5056009;28;20124;-75
2021/06/22 00:26:31;;;;;;;2.97;1.48;;;13.00;92.80;;;;;;5055887;28;20037;-75
2021/06/22 00:28:56;;;;;;;1.58;1.35;;;13.00;92.80;;;;;;5073460;28;20020;-75
2021/06/22 00:31:22;;;;;;;1.88;1.63;;;13.00;92.80;;;;;;5073741;28;20036;-75
2021/06/22 00:33:47;;;;;;;1.35;1.23;;;13.00;92.80;;;;;;5055967;28;20145;-75
2021/06/22 00:36:13;;;;;;;2.33;1.40;;;13.00;92.80;;;;;;5055193;28;20503;-75
2021/06/22 00:38:38;;;;;;;1.83;1.50;;;12.90;92.90;;;;;;5055448;28;20047;-75
2021/06/22 00:41:04;;;;;;;1.67;1.27;;;12.90;92.90;;;;;;5073773;28;20032;-75
2021/06/22 00:43:30;;;;;;;1.80;1.45;;;12.90;92.80;;;;;;5073156;28;20073;-75
2021/06/22 00:45:55;;;;;;;2.58;1.58;;;12.90;92.90;;;;;;5055560;28;20389;-75
2021/06/22 00:48:21;;;;;;;2.28;1.60;;;12.90;92.90;;;;;;5073466;28;20487;-74
2021/06/22 00:50:46;;;;;;;2.55;1.50;;;12.90;92.90;;;;;;5055662;28;20538;-75
2021/06/22 00:53:12;;;;;;;2.03;1.42;;;12.80;92.90;;;;;;5055542;28;20021;-75
2021/06/22 00:55:38;;;;;;;2.35;1.70;;;12.80;92.90;;;;;;5073456;28;20107;-74
2021/06/22 00:58:07;;;;;;;2.63;2.00;;;12.80;93.00;;;;;;5054991;28;20027;-74
2021/06/22 01:00:33;;;;;;;1.67;1.23;;;12.70;93.00;;;;;;5055463;28;20024;-74
2021/06/22 01:03:00;;;;;;;1.90;1.52;;;12.70;93.00;;;;;;5073419;28;20027;-74
2021/06/22 01:05:27;;;;;;;1.88;1.65;;;12.70;93.00;;;;;;5073407;28;20021;-74
2021/06/22 01:07:54;;;;;;;1.60;1.50;;;12.70;93.00;;;;;;5073373;28;20017;-74
2021/06/22 01:10:24;;;;;;;2.38;1.60;;;12.70;93.00;;;;;;5073287;28;20026;-74
2021/06/22 01:12:51;;;;;;;1.27;1.17;;;12.70;93.00;;;;;;5072725;28;20020;-74
2021/06/22 01:15:22;;;;;;;2.60;1.75;;;12.70;93.00;;;;;;5073241;28;20512;-74
2021/06/22 01:17:55;;;;;;;1.63;1.52;;;12.70;92.90;;;;;;5073340;28;20029;-74
2021/06/22 01:20:22;;;;;;;2.10;1.90;;;12.70;92.90;;;;;;5055360;28;20111;-74
2021/06/22 01:22:48;;;;;;;1.60;1.15;;;12.60;92.90;;;;;;5072997;28;20024;-74
2021/06/22 01:25:14;;;;;;;2.70;1.70;;;12.60;93.00;;;;;;5055225;28;20016;-74
2021/06/22 01:27:41;;;;;;;2.67;1.48;;;12.60;92.90;;;;;;5054691;28;20040;-74
2021/06/22 01:30:08;;;;;;;1.50;1.08;;;12.60;92.90;;;;;;5073108;28;20029;-73
2021/06/22 01:32:34;;;;;;;1.52;1.42;;;12.50;93.00;;;;;;5054889;28;20016;-74
2021/06/22 01:34:59;;;;;;;1.35;1.23;;;12.50;93.00;;;;;;5073054;28;20522;-74
2021/06/22 01:37:25;;;;;;;1.80;1.40;;;12.50;93.00;;;;;;5072990;28;20048;-74
2021/06/22 01:39:51;;;;;;;1.50;1.40;;;12.50;92.90;;;;;;5072980;28;20038;-74
2021/06/22 01:42:18;;;;;;;1.38;1.20;;;12.50;92.90;;;;;;5054550;28;20035;-74
2021/06/22 01:44:46;;;;;;;1.40;1.25;;;12.40;92.90;;;;;;5054969;28;20024;-74
2021/06/22 01:47:12;;;;;;;2.25;1.77;;;12.40;93.00;;;;;;5072950;28;20017;-74
2021/06/22 01:49:38;;;;;;;1.88;1.35;;;12.40;92.90;;;;;;5076625;28;20027;-75
2021/06/22 01:52:04;;;;;;;1.75;1.48;;;12.40;93.00;;;;;;5076860;28;20025;-74
2021/06/22 01:54:29;;;;;;;1.98;1.60;;;12.30;93.00;;;;;;5077018;28;20028;-75
2021/06/22 01:56:55;;;;;;;2.15;1.60;;;12.30;93.00;;;;;;5058472;28;20120;-74
2021/06/22 01:59:20;;;;;;;2.15;1.20;;;12.30;93.00;;;;;;5076880;28;20078;-75
2021/06/22 02:01:46;;;;;;;1.77;1.48;;;12.30;93.00;;;;;;5076645;28;20035;-74
2021/06/22 02:04:12;;;;;;;2.10;1.30;;;12.30;93.00;;;;;;5076853;28;20041;-74
2021/06/22 02:06:39;;;;;;;2.38;1.50;;;12.30;93.00;;;;;;5076610;28;20029;-75
2021/06/22 02:09:05;;;;;;;1.83;1.25;;;12.30;93.30;;;;;;5076534;28;20469;-75
2021/06/22 02:11:30;;;;;;;1.75;1.40;;;12.30;93.00;;;;;;5076171;28;20381;-75
2021/06/22 02:13:56;;;;;;;1.80;1.30;;;12.30;93.00;;;;;;5076530;28;20032;-75
2021/06/22 02:16:22;;;;;;;1.77;1.33;;;12.40;92.90;;;;;;5076429;28;20033;-74
2021/06/22 02:18:47;;;;;;;1.45;1.25;;;12.40;92.90;;;;;;5058500;28;20027;-75
2021/06/22 02:21:13;;;;;;;1.10;1.00;;;12.40;92.80;;;;;;5076370;28;20052;-75
2021/06/22 02:23:40;;;;;;;1.42;1.00;;;12.40;92.80;;;;;;5076300;28;20016;-75
2021/06/22 02:26:06;;;;;;;2.22;1.42;;;12.50;92.70;;;;;;5057979;28;20067;-74
2021/06/22 02:28:32;;;;;;;1.67;1.30;;;12.50;92.70;;;;;;5058341;28;20052;-75
2021/06/22 02:30:58;;;;;;;2.00;1.80;;;12.40;92.70;;;;;;5076153;28;20059;-75
2021/06/22 02:33:25;;;;;;;1.83;1.33;;;12.40;92.70;;;;;;5076165;28;20501;-75
2021/06/22 02:35:50;;;;;;;2.05;1.77;;;12.30;92.80;;;;;;5058101;28;20032;-75
2021/06/22 02:38:17;;;;;;;2.15;1.40;;;12.30;92.90;;;;;;5075785;28;20052;-75
2021/06/22 02:40:43;;;;;;;3.22;1.60;;;12.30;92.90;;;;;;5075476;28;20108;-75
2021/06/22 02:43:08;;;;;;;2.13;1.70;;;12.20;92.90;;;;;;5076245;28;20052;-75
2021/06/22 02:45:35;;;;;;;1.95;1.70;;;12.20;93.00;;;;;;5075972;28;20031;-75
2021/06/22 02:48:02;;;;;;;2.80;1.70;;;12.20;93.00;;;;;;5075919;28;20024;-75
2021/06/22 02:50:28;;;;;;;1.95;1.40;;;12.20;93.00;;;;;;5075843;28;20082;-75
2021/06/22 02:52:54;;;;;;;2.38;1.75;;;12.10;93.00;;;;;;5075182;28;20016;-75
2021/06/22 02:55:20;;;;;;;2.83;1.83;;;12.10;93.00;;;;;;5075600;28;20090;-75
2021/06/22 02:57:47;;;;;;;2.00;1.73;;;12.10;93.00;;;;;;5057760;28;20025;-75
2021/06/22 03:00:14;;;;;;;2.20;1.65;;;12.10;93.00;;;;;;5075066;28;20035;-75
2021/06/22 03:02:39;;;;;;;2.00;1.83;;;12.10;93.00;;;;;;5075675;28;20158;-75
2021/06/22 03:05:05;;;;;;;2.70;1.90;;;12.00;93.00;;;;;;5057581;28;20456;-75
2021/06/22 03:07:31;;;;;;;2.08;1.80;;;12.00;93.00;;;;;;5075019;28;20107;-75
2021/06/22 03:09:56;;;;;;;1.95;1.40;;;12.00;93.00;;;;;;5075425;28;20028;-75
2021/06/22 03:12:22;;;;;;;2.30;1.45;;;12.00;93.10;;;;;;5075595;28;20461;-75
2021/06/22 03:14:47;;;;;;;1.92;1.70;;;12.00;93.00;;;;;;5075420;28;20047;-75
2021/06/22 03:17:13;;;;;;;1.95;1.70;;;12.00;93.00;;;;;;5075391;28;20052;-75
2021/06/22 03:19:39;;;;;;;2.30;1.85;;;12.00;93.10;;;;;;5075365;28;20089;-75
2021/06/22 03:22:04;;;;;;;1.75;1.42;;;11.90;93.10;;;;;;5056671;28;20454;-75
2021/06/22 03:24:30;;;;;;;3.40;2.20;;;11.90;93.10;;;;;;5075189;28;20103;-75
2021/06/22 03:26:55;;;;;;;3.53;2.05;;;11.90;93.10;;;;;;5075056;28;20027;-75
2021/06/22 03:29:23;;;;;;;2.35;1.50;;;11.90;93.00;;;;;;5075218;28;20029;-75
2021/06/22 03:31:49;;;;;;;2.65;2.00;;;12.00;93.10;;;;;;5075096;28;20051;-75
2021/06/22 03:34:14;;;;;;;2.55;1.50;;;12.00;93.10;;;;;;5057108;28;20059;-75
2021/06/22 03:36:40;;;;;;;2.38;1.70;;;12.00;93.10;;;;;;5056294;28;20068;-74
2021/06/22 03:39:09;;;;;;;3.90;1.85;;;12.00;93.10;;;;;;5074935;28;20035;-75
2021/06/22 03:41:35;;;;;;;2.08;1.83;;;12.00;93.10;;;;;;5075065;28;20111;-75
2021/06/22 03:44:01;;;;;;;2.30;1.60;;;12.00;93.00;;;;;;5074867;28;20052;-75
2021/06/22 03:46:26;;;;;;;1.85;1.52;;;12.00;93.00;;;;;;5074732;28;20052;-75
2021/06/22 03:48:52;;;;;;;2.65;2.03;;;12.00;93.00;;;;;;5074642;28;20085;-75
2021/06/22 03:51:17;;;;;;;3.30;1.92;;;12.00;93.00;;;;;;5074202;28;20025;-74
2021/06/22 03:53:43;;;;;;;2.13;1.30;;;12.00;93.00;;;;;;5074611;28;20029;-74
2021/06/22 03:56:10;;;;;;;2.40;1.98;;;12.00;93.10;;;;;;5074506;28;20040;-74
2021/06/22 03:58:35;;;;;;;2.67;2.05;;;12.00;93.10;;;;;;5074495;28;20032;-74
2021/06/22 04:01:02;;;;;;;2.47;1.88;;;12.00;93.10;;;;;;5056566;28;20020;-74
2021/06/22 04:03:28;;;;;;;2.90;1.75;;;12.00;93.10;;;;;;5056392;28;20384;-74
2021/06/22 04:05:54;;;;;;;1.85;1.60;;;12.00;93.10;;;;;;5056021;28;20031;-74
2021/06/22 04:08:19;;;;;;;2.45;1.50;;;12.00;93.00;;;;;;5074261;28;20027;-74
2021/06/22 04:10:46;;;;;;;2.00;1.40;;;12.10;93.00;;;;;;5073994;28;20492;-74
2021/06/22 04:13:11;;;;;;;1.45;1.35;;;12.10;93.00;;;;;;5073574;28;20021;-74
2021/06/22 04:15:37;;;;;;;1.83;1.48;;;12.10;93.00;;;;;;5074016;28;20389;-74
2021/06/22 04:18:04;;;;;;;2.70;1.88;;;12.10;93.00;;;;;;5056167;28;20020;-74
2021/06/22 04:20:30;;;;;;;1.77;1.30;;;12.20;93.00;;;;;;5073640;28;20428;-74
2021/06/22 04:22:56;;;;;;;2.25;1.75;;;12.20;92.90;;;;;;5056194;28;20017;-74
2021/06/22 04:25:22;;;;;;;2.05;1.70;;;12.20;92.90;;;;;;5074052;28;20024;-74
2021/06/22 04:27:47;;;;;;;1.95;1.35;;;12.20;92.90;;;;;;5056042;28;20021;-74
2021/06/22 04:30:13;;;;;;;2.45;1.23;;;12.20;92.90;;;;;;5055858;28;20020;-76
2021/06/22 04:32:39;;;;;;;1.50;1.40;;;12.30;92.90;;;;;;5073973;28;20017;-73
2021/06/22 04:35:05;;;;;;;3.47;2.28;;;12.30;92.90;;;;;;5073359;28;20028;-73
2021/06/22 04:37:31;;;;;;;1.40;1.20;;;12.40;92.80;;;;;;5073508;28;20056;-73
2021/06/22 04:39:56;;;;;;;3.38;1.80;;;12.40;92.80;;;;;;5073856;28;20019;-73
2021/06/22 04:42:22;;;;;;;1.98;1.42;;;12.50;92.80;;;;;;5073588;28;20030;-73
2021/06/22 04:44:47;;;;;;;2.38;1.77;;;12.50;92.80;;;;;;5073641;28;20385;-74
2021/06/22 04:47:13;;;;;;;2.45;1.95;;;12.50;92.80;;;;;;5073507;28;20017;-73
2021/06/22 04:49:39;;;;;;;2.10;1.60;;;12.50;92.80;;;;;;5073163;28;20373;-73
2021/06/22 04:52:05;;;;;;;2.40;1.50;;;12.50;92.80;;;;;;5073530;28;20385;-73
2021/06/22 04:54:30;;;;;;;2.15;1.80;;;12.60;92.70;;;;;;5073499;28;20483;-73
2021/06/22 04:56:56;;;;;;;2.97;1.77;;;12.60;92.70;;;;;;5073446;28;20032;-73
2021/06/22 04:59:22;;;;;;;1.48;1.20;;;12.70;92.70;;;;;;5073408;28;20448;-73
2021/06/22 05:01:47;;;;;;;2.40;1.50;;;12.70;92.70;;;;;;5073367;28;20037;-73
2021/06/22 05:04:13;;;;;;;2.20;1.65;;;12.80;92.70;;;;;;5072870;28;20373;-73
2021/06/22 05:06:39;;;;;;;1.70;1.60;;;12.90;92.60;;;;;;5073478;28;20107;-74
2021/06/22 05:09:05;;;;;;;3.53;1.80;;;13.00;92.60;;;;;;5055439;28;20035;-73
2021/06/22 05:11:30;;;;;;;3.53;2.50;;;13.00;92.60;;;;;;5073438;28;20477;-74
2021/06/22 05:13:56;;;;;;;3.05;2.10;;;13.10;92.60;;;;;;5073284;28;20020;-73
2021/06/22 05:16:22;;;;;;;3.10;2.58;;;13.20;92.50;;;;;;5073178;28;20035;-74
2021/06/22 05:18:48;;;;;;;2.03;1.45;;;13.40;92.50;;;;;;5072809;28;20070;-74
2021/06/22 05:21:14;;;;;;;2.95;1.77;;;13.50;92.50;;;;;;5073390;28;20024;-73
2021/06/22 05:23:40;;;;;;;2.78;1.80;;;13.70;92.30;;;;;;5072934;28;20021;-74
2021/06/22 05:26:06;;;;;;;2.67;2.08;;;13.70;92.30;;;;;;5072976;28;20035;-73
2021/06/22 05:28:31;;;;;;;1.80;1.65;;;13.80;92.30;;;;;;5073069;28;20017;-73
2021/06/22 05:30:57;;;;;;;2.38;1.73;;;13.80;92.30;;;;;;5073048;28;20505;-73
2021/06/22 05:33:23;;;;;;;2.95;2.05;;;13.90;92.20;;;;;;5072798;28;20028;-73
2021/06/22 05:35:48;;;;;;;2.17;1.92;;;14.00;92.20;;;;;;5072820;28;20032;-73
2021/06/22 05:38:14;;;;;;;2.72;1.83;;;14.10;92.10;;;;;;5073055;28;20063;-73
2021/06/22 05:40:40;;;;;;;4.38;3.67;;;14.10;92.20;;;;;;5073340;28;20028;-73
2021/06/22 05:43:05;;;;;;;5.47;3.58;;;14.20;92.10;;;;;;5072913;28;20377;-73
2021/06/22 05:45:31;;;;;;;3.53;2.55;;;14.20;92.00;;;;;;5072811;28;20051;-73
2021/06/22 05:47:57;;;;;;;4.13;2.50;;;14.30;92.10;;;;;;5072599;28;20029;-73
2021/06/22 05:50:22;;;;;;;3.22;2.28;;;14.40;92.10;;;;;;5072844;28;20385;-73
2021/06/22 05:52:49;;;;;;;3.88;2.72;;;14.60;92.00;;;;;;5072954;28;20469;-73
2021/06/22 05:55:20;;;;;;;4.55;2.67;;;14.60;92.00;;;;;;5072853;28;20021;-73
2021/06/22 05:57:54;;;;;;;4.00;2.10;;;14.80;91.90;;;;;;5072879;28;20040;-74
2021/06/22 06:00:24;;;;;;;5.13;3.88;;;14.90;91.80;;;;;;5072824;28;20096;-74
2021/06/22 06:02:50;;;;;;;;;;;15.00;91.60;;;;;;5072764;28;20021;-74
2021/06/22 06:05:18;;;;;;;4.53;2.83;;;15.00;91.90;;;;;;5072843;28;19904;-74
2021/06/22 06:07:44;;;;;;;7.32;4.00;;;15.10;91.80;;;;;;5072854;28;20056;-74
2021/06/22 06:10:11;;;;;;;4.93;3.38;;;15.30;91.50;;;;;;5072297;28;20024;-74
2021/06/22 06:12:37;;;;;;;4.60;3.65;;;15.30;91.50;;;;;;5072589;28;20020;-74
2021/06/22 06:15:04;;;;;;;4.28;3.17;;;15.30;91.60;;;;;;5072544;28;20035;-74
2021/06/22 06:17:30;;;;;;;4.15;3.10;;;15.40;91.60;;;;;;5072063;28;20060;-74
2021/06/22 06:19:55;;;;;;;3.33;2.50;;;15.40;91.60;;;;;;5072522;28;20429;-74
2021/06/22 06:22:21;;;;;;;3.80;2.80;;;15.50;91.60;;;;;;5073228;28;20016;-74
2021/06/22 06:24:47;;;;;;;5.05;2.97;;;15.60;91.50;;;;;;5077203;28;20025;-74
2021/06/22 06:27:16;;;;;;;5.10;2.70;;;15.60;91.70;;;;;;5072385;28;20028;-74
2021/06/22 06:29:57;;;;;;;3.88;2.83;;;15.60;91.50;;;;;;5089324;28;20338;-74
2021/06/22 06:32:22;;;;;;;3.63;2.80;;;15.60;91.60;;;;;;5092326;28;20379;-74
2021/06/22 06:34:48;;;;;;;3.35;2.45;;;15.60;91.60;;;;;;5075677;28;20449;-73
2021/06/22 06:37:13;;;;;;;3.10;2.20;;;15.60;91.60;;;;;;5075994;28;20099;-73
2021/06/22 06:39:39;;;;;;;4.07;2.88;;;15.70;91.50;;;;;;5091378;28;20031;-74
2021/06/22 06:42:05;;;;;;;4.60;3.22;;;15.80;91.50;;;;;;5096311;28;20031;-74
2021/06/22 06:44:31;;;;;;;4.90;3.20;;;15.80;91.40;;;;;;5094752;28;20534;-74
2021/06/22 06:46:56;;;;;;;4.53;3.35;;;15.70;91.40;;;;;;5095762;28;20039;-74
2021/06/22 06:49:22;;;;;;;4.93;3.28;;;15.70;91.40;;;;;;5083763;28;20039;-74
2021/06/22 06:51:47;;;;;;;4.85;3.47;;;15.70;91.40;;;;;;5075800;28;20481;-74
2021/06/22 06:54:13;;;;;;;4.32;2.92;;;15.90;91.40;;;;;;5076866;28;20075;-73
2021/06/22 06:56:38;;;;;;;3.72;2.65;;;16.00;91.20;;;;;;5075595;28;20029;-73
2021/06/22 06:59:04;;;;;;;4.07;2.47;;;16.20;91.10;;;;;;5082721;28;20376;-73
2021/06/22 07:01:30;;;;;;;3.75;2.70;;;16.30;91.00;;;;;;5080628;28;20020;-74
2021/06/22 07:03:56;;;;;;;4.30;2.70;;;16.40;91.00;;;;;;5080339;28;20501;-73
2021/06/22 07:06:22;;;;;;;3.67;2.50;;;16.40;90.90;;;;;;5084477;28;20069;-73
2021/06/22 07:08:47;;;;;;;3.83;2.78;;;16.50;90.90;;;;;;5095645;28;20024;-73
2021/06/22 07:11:16;;;;;;;3.08;2.33;;;16.50;90.90;;;;;;5088397;28;20040;-73
2021/06/22 07:13:41;;;;;;;3.03;2.10;;;16.60;90.90;;;;;;5075535;28;20024;-73
2021/06/22 07:16:07;;;;;;;3.70;2.60;;;16.70;90.90;;;;;;5074806;28;20032;-73
2021/06/22 07:18:33;;;;;;;4.90;3.30;;;16.90;90.80;;;;;;5075308;28;20024;-74
2021/06/22 07:20:59;;;;;;;7.72;5.78;;;16.90;90.50;;;;;;5094539;28;20112;-74
2021/06/22 07:23:25;;;;;;;6.13;4.32;;;16.80;90.50;;;;;;5066109;28;20024;-73
2021/06/22 07:25:50;;;;;;;6.10;4.65;;;16.70;90.70;;;;;;5093335;28;20031;-73
2021/06/22 07:28:16;;;;;;;7.35;4.75;;;16.70;90.70;;;;;;5091950;28;20020;-73
2021/06/22 07:30:41;;;;;;;8.35;5.85;;;16.60;91.00;;;;;;5085282;28;20125;-74
2021/06/22 07:33:07;;;;;;;6.45;4.43;;;16.60;90.70;;;;;;5094001;28;20024;-73
2021/06/22 07:35:33;;;;;;;6.85;5.22;;;16.40;90.90;;;;;;5083469;28;20149;-73
2021/06/22 07:38:02;;;;;;;6.97;5.43;;;16.30;90.80;;;;;;5095032;28;20529;-73
2021/06/22 07:40:28;;;;;;;5.47;4.65;;;16.20;91.00;;;;;;5095142;28;20117;-73
2021/06/22 07:42:54;;;;;;;5.68;4.30;;;16.20;91.00;;;;;;5094596;28;20058;-74
2021/06/22 07:45:20;;;;;;;5.88;4.15;;;16.20;90.90;;;;;;5094847;28;20089;-73
2021/06/22 07:47:46;;;;;;;5.68;4.35;;;16.30;90.70;;;;;;5093142;28;20350;-73
2021/06/22 07:50:12;;;;;;;4.63;3.60;;;16.30;90.80;;;;;;5056806;28;20074;-73
2021/06/22 07:52:38;;;;;;;4.68;3.45;;;16.30;90.70;;;;;;5086807;28;20073;-74
2021/06/22 07:55:05;;;;;;;4.88;3.67;;;16.40;90.70;;;;;;5094935;28;20032;-74
2021/06/22 07:57:30;;;;;;;4.75;3.75;;;16.40;90.70;;;;;;5093081;28;20057;-73
2021/06/22 08:00:07;;;;;;;4.68;3.05;;;16.50;90.60;;;;;;5086145;28;20021;-72
2021/06/22 08:02:33;;;;;;;4.50;3.53;;;16.60;90.60;;;;;;5086213;28;20032;-73
2021/06/22 08:04:58;;;;;;;5.65;4.05;;;16.70;90.40;;;;;;5085858;28;20027;-74
2021/06/22 08:07:23;;;;;;;4.32;3.55;;;16.70;90.40;;;;;;5074219;28;20024;-74
2021/06/22 08:09:49;;;;;;;6.38;4.72;;;16.70;90.30;;;;;;5056749;28;20069;-74
2021/06/22 08:12:14;;;;;;;6.50;5.05;;;16.70;90.30;;;;;;5080095;28;20038;-73
2021/06/22 08:14:40;;;;;;;5.03;3.92;;;16.60;90.40;;;;;;5094561;28;20095;-73
2021/06/22 08:17:07;;;;;;;5.75;4.32;;;16.60;90.50;;;;;;5092330;28;20040;-73
2021/06/22 08:19:32;;;;;;;4.47;3.70;;;16.70;90.40;;;;;;5092570;28;20061;-72
2021/06/22 08:21:58;;;;;;;4.53;3.03;;;16.80;90.30;;;;;;5094288;28;20072;-72
2021/06/22 08:24:23;;;;;;;4.88;3.38;;;16.80;90.10;;;;;;5085463;28;20477;-73
2021/06/22 08:26:49;;;;;;;5.07;3.53;;;16.80;90.30;;;;;;5079535;28;20028;-72
2021/06/22 08:29:14;;;;;;;3.58;3.13;;;16.80;90.20;;;;;;5092168;28;20055;-72
2021/06/22 08:31:40;;;;;;;3.75;2.80;;;16.80;90.30;;;;;;5073802;28;20017;-73
2021/06/22 08:34:05;;;;;;;3.78;2.88;;;16.90;90.20;;;;;;5086075;28;20488;-72
2021/06/22 08:36:30;;;;;;;3.85;2.42;;;17.00;90.20;;;;;;5089754;28;20059;-73
2021/06/22 08:38:57;;;;;;;3.58;2.60;;;17.10;90.10;;;;;;5074860;28;20547;-72
2021/06/22 08:41:26;;;;;;;5.85;2.67;;;17.20;90.00;;;;;;5088204;28;20470;-72
2021/06/22 08:43:52;;;;;;;3.80;2.50;;;17.30;89.90;;;;;;5091184;28;20024;-72
2021/06/22 08:46:18;;;;;;;2.75;2.20;;;17.40;89.90;;;;;;5088410;28;20052;-72
2021/06/22 08:48:44;;;;;;;5.13;3.75;;;17.60;89.80;;;;;;5081252;28;20071;-72
2021/06/22 08:51:10;;;;;;;5.15;3.67;;;17.50;89.20;;;;;;5070656;28;20500;-72
2021/06/22 08:53:36;;;;;;;4.82;3.75;;;17.50;89.80;;;;;;5079412;28;20031;-73
2021/06/22 08:56:02;;;;;;;3.55;2.85;;;17.60;89.80;;;;;;5090705;28;20032;-72
2021/06/22 08:58:27;;;;;;;4.05;2.85;;;17.80;89.50;;;;;;5071442;28;20036;-73
2021/06/22 09:00:54;;;;;;;3.95;2.78;;;17.90;89.40;;;;;;5085996;28;20020;-72
2021/06/22 09:03:23;;;;;;;4.47;2.95;;;18.00;89.30;;;;;;5081441;28;20059;-72
2021/06/22 09:05:53;;;;;;;2.33;2.00;;;18.10;89.20;;;;;;5074436;28;20046;-72
2021/06/22 09:08:30;;;;;;;3.38;2.45;;;18.00;89.10;;;;;;5074883;28;20499;-72
2021/06/22 09:11:14;;;;;;;3.53;2.70;;;18.10;89.30;;;;;;5074333;28;20074;-72
2021/06/22 09:13:42;;;;;;;3.92;2.75;;;18.20;89.30;;;;;;5080052;28;20036;-72
2021/06/22 09:16:13;;;;;;;3.28;2.30;;;18.30;89.10;;;;;;5055242;28;20044;-72
2021/06/22 09:18:43;;;;;;;4.50;3.05;;;18.40;88.90;;;;;;5074352;28;20397;-72
2021/06/22 09:21:15;;;;;;;3.72;2.60;;;18.60;88.90;;;;;;5085248;28;20074;-72
2021/06/22 09:23:43;;;;;;;3.17;2.33;;;18.80;88.60;;;;;;5093312;28;20027;-72
2021/06/22 09:26:10;;;;;;;3.10;2.75;;;19.00;88.20;;;;;;5091226;28;20090;-72
2021/06/22 09:28:36;;;;;;;2.95;2.50;;;19.10;88.10;;;;;;5093221;28;20096;-73
2021/06/22 09:31:04;;;;;;;3.58;3.22;;;19.10;88.10;;;;;;5091507;28;20051;-73
2021/06/22 09:33:40;;;;;;;4.20;2.83;;;19.10;88.10;;;;;;5073001;28;20039;-73
2021/06/22 09:36:07;;;;;;;4.35;3.58;;;19.30;88.10;;;;;;5074091;28;20037;-73
2021/06/22 09:38:52;;;;;;;4.15;3.50;;;19.20;87.80;;;;;;5072826;28;20045;-73
2021/06/22 09:41:27;;;;;;;5.40;3.70;;;19.20;88.00;;;;;;5073902;28;20029;-73
2021/06/22 09:44:08;;;;;;;4.90;4.10;;;19.30;88.10;;;;;;5092285;28;20025;-73
2021/06/22 09:46:37;;;;;;;4.40;3.47;;;19.30;87.60;;;;;;5091650;28;20036;-73
2021/06/22 09:49:06;;;;;;;4.68;3.92;;;19.20;87.90;;;;;;5092739;28;20020;-73
2021/06/22 09:51:39;;;;;;;5.32;3.95;;;19.20;88.10;;;;;;5080806;28;20427;-73
2021/06/22 09:54:16;;;;;;;4.30;3.10;;;19.10;88.20;;;;;;5077776;28;20046;-73
2021/06/22 09:57:05;;;;;;;4.22;3.55;;;19.20;88.10;;;;;;5092984;28;20039;-74
2021/06/22 09:59:46;;;;;;;5.53;4.20;;;19.30;87.80;;;;;;5080662;28;20056;-74
2021/06/22 10:02:11;;;;;;;4.70;3.92;;;19.20;87.70;;;;;;5072120;28;20071;-74
2021/06/22 10:04:41;;;;;;;4.68;3.58;;;19.10;88.10;;;;;;5073183;28;20055;-74
2021/06/22 10:07:12;;;;;;;5.30;4.47;;;19.20;87.90;;;;;;5093090;28;20036;-74
2021/06/22 10:09:39;;;;;;;4.90;4.28;;;19.20;87.80;;;;;;5080624;28;20032;-74
2021/06/22 10:12:15;;;;;;;4.65;3.63;;;19.30;87.90;;;;;;5076612;28;20027;-74
2021/06/22 10:14:43;;;;;;;4.63;4.00;;;19.40;87.70;;;;;;5077618;28;20040;-74
2021/06/22 10:17:13;;;;;;;4.70;3.72;;;19.50;87.50;;;;;;5076279;28;20028;-74
2021/06/22 10:19:39;;;;;;;5.45;4.82;;;19.60;87.60;;;;;;5059891;28;20051;-74
2021/06/22 10:22:06;;;;;;;5.05;4.25;;;19.70;87.40;;;;;;5076395;28;20024;-75
2021/06/22 10:24:38;;;;;;;4.70;4.13;;;19.70;87.40;;;;;;5076935;28;20020;-73
2021/06/22 10:27:04;;;;;;;4.70;3.60;;;19.80;87.50;;;;;;5081165;28;20024;-75
2021/06/22 10:29:36;;;;;;;4.30;3.22;;;19.80;87.40;;;;;;5087576;28;20030;-74
2021/06/22 10:32:03;;;;;;;4.28;3.13;;;19.80;87.40;;;;;;5076237;28;20016;-74
2021/06/22 10:34:30;;;;;;;3.88;3.13;;;19.90;87.40;;;;;;5076267;28;20104;-74
2021/06/22 10:36:58;;;;;;;3.85;3.47;;;20.00;87.10;;;;;;5076718;28;20040;-74
2021/06/22 10:39:58;;;;;;;4.30;3.90;;;20.00;86.90;;;;;;5087133;28;20384;-75
2021/06/22 10:42:25;;;;;;;5.25;4.45;;;20.00;87.00;;;;;;5070012;28;20041;-75
2021/06/22 10:45:02;;;;;;;5.22;4.28;;;19.90;87.20;;;;;;5075919;28;20031;-74
2021/06/22 10:47:28;;;;;;;5.03;4.30;;;20.00;86.60;;;;;;5080148;28;20032;-75
2021/06/22 10:50:15;;;;;;;4.57;3.90;;;19.90;87.10;;;;;;5072846;28;20073;-74
2021/06/22 10:52:46;;;;;;;4.05;3.63;;;19.90;87.10;;;;;;5095405;28;20024;-73
2021/06/22 10:55:20;;;;;;;4.40;3.80;;;19.80;87.10;;;;;;5091491;28;20032;-74
2021/06/22 10:58:05;;;;;;;5.97;4.88;;;19.80;87.10;;;;;;5092942;28;20398;-74
2021/06/22 11:00:43;;;;;;;5.07;4.43;;;19.80;86.70;;;;;;5092289;28;20024;-74
2021/06/22 11:03:31;;;;;;;5.30;4.25;;;19.90;86.90;;;;;;5076006;28;20474;-78
2021/06/22 11:06:02;;;;;;;4.82;3.72;;;20.10;86.60;;;;;;5075060;28;20500;-74
2021/06/22 11:08:30;;;;;;;3.80;3.38;;;20.40;86.20;;;;;;5058266;28;20397;-74
2021/06/22 11:10:55;;;;;;;4.70;4.00;;;20.60;85.60;;;;;;5082001;28;20055;-74
2021/06/22 11:13:42;;;;;;;4.78;3.50;;;20.70;85.60;;;;;;5087565;28;20028;-74
2021/06/22 11:16:13;;;;;;;4.35;3.50;;;20.80;85.40;;;;;;5085895;28;20078;-74
2021/06/22 11:18:51;;;;;;;4.68;3.30;;;20.80;85.30;;;;;;5095622;28;20078;-74
2021/06/22 11:21:21;;;;;;;3.42;3.13;;;21.10;85.40;;;;;;5078659;28;20041;-74
2021/06/22 11:24:06;;;;;;;4.05;3.22;;;21.80;84.20;;;;;;5079379;28;20020;-73
2021/06/22 11:26:41;;;;;;;4.28;3.30;;;22.60;82.50;;;;;;5080788;28;20470;-73
2021/06/22 11:29:08;;;;;;;3.83;3.42;;;23.10;81.20;;;;;;5095345;28;20020;-74
2021/06/22 11:31:35;;;;;;;6.10;3.33;;;23.60;79.60;;;;;;5084888;28;20587;-73
2021/06/22 11:34:13;;;;;;;9.23;6.90;;;24.10;78.90;;;;;;5074475;28;20032;-74
2021/06/22 11:36:44;;;;;;;7.60;6.55;;;24.40;76.90;;;;;;5074352;28;20078;-74
2021/06/22 11:39:15;;;;;;;8.32;7.53;;;23.90;77.60;;;;;;5078716;28;20036;-74
2021/06/22 11:42:01;;;;;;;8.10;7.30;;;23.20;78.00;;;;;;5087160;28;20029;-73
2021/06/22 11:44:28;;;;;;;6.55;5.82;;;22.60;80.30;;;;;;5079517;28;20040;-74
2021/06/22 11:46:53;;;;;;;6.07;5.47;;;22.80;80.10;;;;;;5094927;28;20073;-74
2021/06/22 11:49:19;;;;;;;6.68;6.07;;;23.00;79.60;;;;;;5086382;28;20107;-73
2021/06/22 11:51:48;;;;;;;5.60;5.00;;;23.20;78.30;;;;;;5078417;28;20134;-73
2021/06/22 11:54:50;;;;;;;5.07;4.60;;;23.20;78.30;;;;;;5080753;28;20031;-73
2021/06/22 11:57:31;;;;;;;4.97;3.75;;;23.50;78.50;;;;;;5070419;28;20055;-74
2021/06/22 12:00:03;;;;;;;3.38;3.08;;;24.10;77.60;;;;;;5082201;28;20103;-74
2021/06/22 12:02:28;;;;;;;4.07;3.67;;;24.20;76.70;;;;;;5089772;28;20089;-73
2021/06/22 12:04:54;;;;;;;3.55;3.03;;;24.30;77.30;;;;;;5075881;28;20024;-74
2021/06/22 12:07:19;;;;;;;3.45;3.03;;;24.70;76.70;;;;;;5088961;28;20122;-74
2021/06/22 12:09:46;;;;;;;3.15;2.90;;;25.10;75.70;;;;;;5094465;28;20039;-74
2021/06/22 12:12:14;;;;;;;4.10;3.58;;;25.30;75.40;;;;;;5094211;28;20024;-73
2021/06/22 12:14:47;;;;;;;3.30;3.00;;;25.40;75.00;;;;;;5093402;28;20024;-74
2021/06/22 12:17:18;;;;;;;4.75;4.03;;;25.40;75.50;;;;;;5075896;28;20036;-72
2021/06/22 12:19:44;;;;;;;5.50;5.00;;;25.10;74.20;;;;;;5076096;28;20024;-74
2021/06/22 12:22:12;;;;;;;5.80;5.18;;;24.40;76.30;;;;;;5094432;28;20537;-74
2021/06/22 12:24:39;;;;;;;4.43;3.90;;;23.70;76.80;;;;;;5094284;28;20023;-74
2021/06/22 12:27:05;;;;;;;4.15;3.75;;;23.60;77.70;;;;;;5094157;28;20035;-75
2021/06/22 12:29:31;;;;;;;4.35;3.70;;;23.60;77.30;;;;;;5094137;28;20146;-74
2021/06/22 12:31:58;;;;;;;3.58;3.28;;;23.30;77.30;;;;;;5093607;28;20048;-74
2021/06/22 12:34:25;;;;;;;4.10;3.60;;;22.80;78.20;;;;;;5093249;28;20024;-74
2021/06/22 12:36:52;;;;;;;3.92;3.28;;;22.60;78.50;;;;;;5094051;28;20050;-74
2021/06/22 12:39:20;;;;;;;2.65;2.45;;;22.40;78.70;;;;;;5093818;28;20056;-74
2021/06/22 12:41:46;;;;;;;2.63;2.42;;;22.20;79.00;;;;;;5093943;28;20032;-74
2021/06/22 12:44:12;;;;;;;2.40;2.20;;;22.60;78.70;;;;;;5093913;28;20090;-74
2021/06/22 12:46:40;;;;;;;3.25;2.92;;;23.10;77.60;;;;;;5093806;28;20035;-74
2021/06/22 12:49:10;;;;;;;2.58;2.38;;;23.40;76.50;;;;;;5093478;28;20020;-74
2021/06/22 12:51:42;;;;;;;3.58;2.53;;;23.30;76.00;;;;;;5075749;28;20456;-75